createdAt,value
2023-01-18T00:04:28.406Z,225
2023-01-18T00:09:47.323Z,225
2023-01-18T00:15:06.527Z,225
2023-01-18T00:25:44.818Z,270
2023-01-18T00:31:04.241Z,225
2023-01-18T00:36:23.649Z,225
2023-01-18T00:41:43.220Z,270
2023-01-18T00:47:02.016Z,225
2023-01-18T00:52:20.984Z,270
2023-01-18T00:57:40.172Z,270
2023-01-18T01:08:18.748Z,270
2023-01-18T01:13:37.575Z,270
2023-01-18T01:24:15.714Z,225
2023-01-18T01:29:35.536Z,180
2023-01-18T01:34:54.388Z,90
2023-01-18T01:40:14.077Z,90
2023-01-18T01:50:52.196Z,90
2023-01-18T01:56:11.613Z,90
2023-01-18T02:06:50.676Z,225
2023-01-18T02:12:09.698Z,225
2023-01-18T02:17:28.802Z,225
2023-01-18T02:22:47.771Z,225
2023-01-18T02:33:26.645Z,270
2023-01-18T02:38:45.581Z,270
2023-01-18T02:49:24.211Z,270
2023-01-18T02:54:43.604Z,270
2023-01-18T03:00:03.140Z,270
2023-01-18T03:05:22.047Z,270
2023-01-18T03:16:00.835Z,270
2023-01-18T03:21:19.603Z,270
2023-01-18T03:31:57.525Z,270
2023-01-18T03:37:16.660Z,270
2023-01-18T03:42:35.553Z,270
2023-01-18T03:47:55.029Z,315
2023-01-18T03:58:33.976Z,270
2023-01-18T04:03:53.395Z,225
2023-01-18T04:14:32.003Z,270
2023-01-18T04:19:51.597Z,270
2023-01-18T04:30:30.891Z,270
2023-01-18T04:35:50.495Z,270
2023-01-18T04:41:10.001Z,225
2023-01-18T04:51:48.021Z,270
2023-01-18T04:57:07.622Z,225
2023-01-18T05:07:46.176Z,225
2023-01-18T05:13:05.593Z,315
2023-01-18T05:18:25.249Z,270
2023-01-18T05:23:44.672Z,225
2023-01-18T05:34:23.242Z,225
2023-01-18T05:39:42.459Z,270
2023-01-18T05:50:21.318Z,225
2023-01-18T05:55:40.925Z,225
2023-01-18T06:01:00.389Z,225
2023-01-18T06:06:19.733Z,225
2023-01-18T06:16:58.292Z,225
2023-01-18T06:22:17.501Z,270
2023-01-18T06:32:57.395Z,225
2023-01-18T06:38:16.235Z,225
2023-01-18T06:43:35.509Z,270
2023-01-18T06:48:54.414Z,225
2023-01-18T06:59:32.992Z,225
2023-01-18T07:04:52.505Z,270
2023-01-18T07:15:30.955Z,225
2023-01-18T07:20:49.876Z,225
2023-01-18T07:32:02.673Z,225
2023-01-18T07:37:22.568Z,225
2023-01-18T07:48:01.365Z,270
2023-01-18T07:53:20.849Z,225
2023-01-18T08:03:59.585Z,225
2023-01-18T08:09:18.385Z,225
2023-01-18T08:14:37.233Z,270
2023-01-18T08:19:56.905Z,270
2023-01-18T08:30:36.247Z,270
2023-01-18T08:35:55.142Z,315
2023-01-18T08:46:33.083Z,225
2023-01-18T08:51:52.488Z,270
2023-01-18T08:57:11.615Z,225
2023-01-18T09:02:30.624Z,225
2023-01-18T09:13:08.816Z,225
2023-01-18T09:18:27.964Z,270
2023-01-18T09:29:06.864Z,270
2023-01-18T09:34:26.250Z,225
2023-01-18T09:39:51.644Z,270
2023-01-18T09:45:04.559Z,270
2023-01-18T09:55:43.070Z,225
2023-01-18T10:01:02.867Z,270
2023-01-18T10:11:41.442Z,270
2023-01-18T10:17:01.065Z,225
2023-01-18T10:22:20.504Z,270
2023-01-18T10:27:40.284Z,225
2023-01-18T10:38:18.322Z,225
2023-01-18T10:43:37.893Z,225
2023-01-18T10:54:16.188Z,270
2023-01-18T10:59:35.911Z,270
2023-01-18T11:04:54.788Z,270
2023-01-18T11:10:14.247Z,270
2023-01-18T11:15:33.928Z,270
2023-01-18T11:20:53.894Z,270
2023-01-18T11:31:32.629Z,225
2023-01-18T11:36:51.932Z,270
2023-01-18T11:42:11.631Z,315
2023-01-18T11:47:30.433Z,270
2023-01-18T11:58:09.816Z,270
2023-01-18T12:03:28.518Z,270
2023-01-18T12:14:06.829Z,270
2023-01-18T12:19:26.145Z,225
2023-01-18T12:24:46.172Z,270
2023-01-18T12:30:04.855Z,270
2023-01-18T12:40:43.702Z,315
2023-01-18T12:46:03.160Z,270
2023-01-18T12:56:41.540Z,270
2023-01-18T13:02:01.258Z,270
2023-01-18T13:12:40.314Z,270
2023-01-18T13:18:00.438Z,315
2023-01-18T13:23:19.682Z,225
2023-01-18T13:28:39.495Z,225
2023-01-18T13:39:18.400Z,270
2023-01-18T13:44:37.377Z,225
2023-01-18T13:49:56.139Z,315
2023-01-18T13:55:15.852Z,270
2023-01-18T14:00:34.890Z,270
2023-01-18T14:05:54.302Z,270
2023-01-18T14:11:13.927Z,270
2023-01-18T14:16:32.916Z,270
2023-01-18T14:21:52.349Z,225
2023-01-18T14:27:11.260Z,270
2023-01-18T14:37:50.144Z,270
2023-01-18T14:43:09.789Z,225
2023-01-18T14:48:29.355Z,225
2023-01-18T14:53:48.660Z,270
2023-01-18T15:04:27.609Z,270
2023-01-18T15:09:46.749Z,270
2023-01-18T15:20:25.756Z,270
2023-01-18T15:25:44.725Z,270
2023-01-18T15:31:03.666Z,315
2023-01-18T15:36:23.243Z,270
2023-01-18T15:47:02.325Z,315
2023-01-18T15:52:22.040Z,315
2023-01-18T16:03:00.331Z,315
2023-01-18T16:08:20.022Z,315
2023-01-18T16:18:58.735Z,315
2023-01-18T16:24:17.831Z,315
2023-01-18T16:29:37.102Z,315
2023-01-18T16:34:56.395Z,315
2023-01-18T16:45:35.295Z,315
2023-01-18T16:50:54.682Z,315
2023-01-18T16:56:13.735Z,315
2023-01-18T17:01:33.489Z,315
2023-01-18T17:06:52.420Z,315
2023-01-18T17:12:11.630Z,225
2023-01-18T17:17:31.216Z,315
2023-01-18T17:28:10.225Z,0
2023-01-18T17:33:29.461Z,315
2023-01-18T17:44:07.731Z,315
2023-01-18T17:49:26.857Z,0
2023-01-18T17:54:46.050Z,270
2023-01-18T18:00:05.497Z,270
2023-01-18T18:05:24.479Z,315
2023-01-18T18:10:44.151Z,315
2023-01-18T18:21:22.936Z,270
2023-01-18T18:26:42.248Z,315
2023-01-18T18:32:01.204Z,225
2023-01-18T18:37:20.897Z,270
2023-01-18T18:42:41.850Z,135
2023-01-18T18:47:59.100Z,0
2023-01-18T18:53:19.521Z,315
2023-01-18T19:03:57.002Z,135
2023-01-18T19:09:16.074Z,315
2023-01-18T19:14:35.726Z,0
2023-01-18T19:19:55.171Z,0
2023-01-18T19:30:33.542Z,45
2023-01-18T19:35:53.104Z,0
2023-01-18T19:46:31.902Z,0
2023-01-18T19:51:51.673Z,315
2023-01-18T19:57:11.273Z,0
2023-01-18T20:02:31.079Z,0
2023-01-18T20:13:09.870Z,0
2023-01-18T20:18:29.592Z,90
2023-01-18T20:29:08.715Z,0
2023-01-18T20:34:27.709Z,45
2023-01-18T20:39:47.394Z,45
2023-01-18T20:45:07.127Z,45
2023-01-18T20:55:45.454Z,0
2023-01-18T21:01:05.319Z,90
2023-01-18T21:11:44.283Z,45
2023-01-18T21:17:03.892Z,90
2023-01-18T21:22:22.751Z,45
2023-01-18T21:27:41.910Z,45
2023-01-18T21:38:19.834Z,315
2023-01-18T21:43:39.138Z,225
2023-01-18T21:54:17.956Z,0
2023-01-18T21:59:37.667Z,0
2023-01-18T22:04:57.065Z,90
2023-01-18T22:10:16.471Z,0
2023-01-18T22:20:54.622Z,90
2023-01-18T22:26:14.387Z,0
2023-01-18T22:36:53.392Z,90
2023-01-18T22:42:13.060Z,135
2023-01-18T22:52:51.285Z,90
2023-01-18T22:58:10.626Z,90
2023-01-18T23:03:30.312Z,90
2023-01-18T23:08:49.672Z,45
2023-01-18T23:19:30.580Z,180
2023-01-18T23:24:48.671Z,0
2023-01-18T23:35:27.485Z,270
2023-01-18T23:40:46.565Z,0
2023-01-18T23:46:06.313Z,45
2023-01-18T23:51:27.682Z,45
